sensor_id;sensor_type;location;lat;lon;timestamp;pressure;altitude;pressure_sealevel;temperature;humidity
31088;BME280;17745;55.914;37.554;2023-04-19T00:02:26;100075.38;;;12.64;31.79
31088;BME280;17745;55.914;37.554;2023-04-19T00:04:56;100072.16;;;12.62;31.76
31088;BME280;17745;55.914;37.554;2023-04-19T00:07:26;100068.38;;;12.57;31.75
31088;BME280;17745;55.914;37.554;2023-04-19T00:09:54;100080.78;;;12.52;31.74
31088;BME280;17745;55.914;37.554;2023-04-19T00:12:24;100081.50;;;12.47;31.72
31088;BME280;17745;55.914;37.554;2023-04-19T00:15:00;100082.31;;;12.48;31.72
31088;BME280;17745;55.914;37.554;2023-04-19T00:17:38;100088.75;;;12.52;31.72
31088;BME280;17745;55.914;37.554;2023-04-19T00:20:10;100086.97;;;12.57;31.67
31088;BME280;17745;55.914;37.554;2023-04-19T00:22:40;100096.00;;;12.56;31.61
31088;BME280;17745;55.914;37.554;2023-04-19T00:25:16;100098.31;;;12.53;31.63
31088;BME280;17745;55.914;37.554;2023-04-19T00:27:47;100093.25;;;12.51;31.66
31088;BME280;17745;55.914;37.554;2023-04-19T00:30:20;100092.19;;;12.52;31.68
31088;BME280;17745;55.914;37.554;2023-04-19T00:32:59;100080.72;;;12.47;31.71
31088;BME280;17745;55.914;37.554;2023-04-19T00:35:32;100089.53;;;12.52;31.72
31088;BME280;17745;55.914;37.554;2023-04-19T00:38:02;100085.53;;;12.50;31.75
31088;BME280;17745;55.914;37.554;2023-04-19T00:40:36;100084.97;;;12.48;31.76
31088;BME280;17745;55.914;37.554;2023-04-19T00:43:12;100091.06;;;12.48;31.75
31088;BME280;17745;55.914;37.554;2023-04-19T00:45:52;100088.41;;;12.48;31.73
31088;BME280;17745;55.914;37.554;2023-04-19T00:48:34;100084.72;;;12.49;31.71
31088;BME280;17745;55.914;37.554;2023-04-19T00:51:03;100082.06;;;12.49;31.71
31088;BME280;17745;55.914;37.554;2023-04-19T00:53:40;100088.09;;;12.44;31.67
31088;BME280;17745;55.914;37.554;2023-04-19T00:56:13;100089.47;;;12.47;31.70
31088;BME280;17745;55.914;37.554;2023-04-19T00:58:46;100093.72;;;12.48;31.64
31088;BME280;17745;55.914;37.554;2023-04-19T01:01:22;100085.19;;;12.46;31.56
31088;BME280;17745;55.914;37.554;2023-04-19T01:04:12;100092.63;;;12.44;31.58
31088;BME280;17745;55.914;37.554;2023-04-19T01:06:43;100091.78;;;12.43;31.53
31088;BME280;17745;55.914;37.554;2023-04-19T01:09:16;100091.56;;;12.45;31.55
31088;BME280;17745;55.914;37.554;2023-04-19T01:11:52;100088.91;;;12.45;31.49
31088;BME280;17745;55.914;37.554;2023-04-19T01:14:28;100091.34;;;12.47;31.44
31088;BME280;17745;55.914;37.554;2023-04-19T01:16:59;100093.66;;;12.43;31.46
31088;BME280;17745;55.914;37.554;2023-04-19T01:19:35;100089.97;;;12.44;31.48
31088;BME280;17745;55.914;37.554;2023-04-19T01:22:06;100087.06;;;12.46;31.43
31088;BME280;17745;55.914;37.554;2023-04-19T01:24:43;100097.19;;;12.49;31.39
31088;BME280;17745;55.914;37.554;2023-04-19T01:27:16;100087.13;;;12.51;31.34
31088;BME280;17745;55.914;37.554;2023-04-19T01:29:48;100092.75;;;12.54;31.34
31088;BME280;17745;55.914;37.554;2023-04-19T01:32:20;100080.28;;;12.55;31.33
31088;BME280;17745;55.914;37.554;2023-04-19T01:35:00;100079.72;;;12.53;31.33
31088;BME280;17745;55.914;37.554;2023-04-19T01:37:37;100088.97;;;12.50;31.36
31088;BME280;17745;55.914;37.554;2023-04-19T01:40:14;100086.31;;;12.50;31.38
31088;BME280;17745;55.914;37.554;2023-04-19T01:42:45;100085.28;;;12.51;31.31
31088;BME280;17745;55.914;37.554;2023-04-19T01:45:13;100093.78;;;12.53;31.24
31088;BME280;17745;55.914;37.554;2023-04-19T01:47:47;100089.53;;;12.52;31.21
31088;BME280;17745;55.914;37.554;2023-04-19T01:50:23;100086.88;;;12.52;31.22
31088;BME280;17745;55.914;37.554;2023-04-19T01:52:56;100089.53;;;12.52;31.23
31088;BME280;17745;55.914;37.554;2023-04-19T01:55:33;100084.56;;;12.56;31.19
31088;BME280;17745;55.914;37.554;2023-04-19T01:58:04;100085.66;;;12.60;31.12
31088;BME280;17745;55.914;37.554;2023-04-19T02:00:33;100086.72;;;12.59;31.09
31088;BME280;17745;55.914;37.554;2023-04-19T02:03:04;100083.50;;;12.57;31.11
31088;BME280;17745;55.914;37.554;2023-04-19T02:05:37;100083.81;;;12.61;31.10
31088;BME280;17745;55.914;37.554;2023-04-19T02:08:06;100082.78;;;12.62;31.08
31088;BME280;17745;55.914;37.554;2023-04-19T02:10:43;100074.25;;;12.60;31.03
31088;BME280;17745;55.914;37.554;2023-04-19T02:13:15;100081.66;;;12.57;31.04
31088;BME280;17745;55.914;37.554;2023-04-19T02:15:58;100086.41;;;12.55;31.09
31088;BME280;17745;55.914;37.554;2023-04-19T02:18:34;100087.69;;;12.53;31.03
31088;BME280;17745;55.914;37.554;2023-04-19T02:21:09;100081.00;;;12.50;31.01
31088;BME280;17745;55.914;37.554;2023-04-19T02:23:41;100092.94;;;12.48;31.00
31088;BME280;17745;55.914;37.554;2023-04-19T02:26:11;100080.94;;;12.45;31.01
31088;BME280;17745;55.914;37.554;2023-04-19T02:28:42;100099.53;;;12.45;31.03
31088;BME280;17745;55.914;37.554;2023-04-19T02:32:32;100079.50;;;12.37;31.05
31088;BME280;17745;55.914;37.554;2023-04-19T02:34:22;100084.41;;;12.46;31.04
31088;BME280;17745;55.914;37.554;2023-04-19T02:37:03;100085.69;;;12.43;31.03
31088;BME280;17745;55.914;37.554;2023-04-19T02:39:34;100089.88;;;12.39;31.06
31088;BME280;17745;55.914;37.554;2023-04-19T02:42:04;100097.75;;;12.34;31.10
31088;BME280;17745;55.914;37.554;2023-04-19T02:44:45;100091.66;;;12.33;31.15
31088;BME280;17745;55.914;37.554;2023-04-19T02:47:17;100091.87;;;12.32;31.16
31088;BME280;17745;55.914;37.554;2023-04-19T02:49:48;100105.16;;;12.32;31.17
31088;BME280;17745;55.914;37.554;2023-04-19T02:52:17;100093.75;;;12.31;31.17
31088;BME280;17745;55.914;37.554;2023-04-19T02:54:53;100100.34;;;12.28;31.19
31088;BME280;17745;55.914;37.554;2023-04-19T02:57:32;100103.25;;;12.27;31.21
31088;BME280;17745;55.914;37.554;2023-04-19T03:03:16;100101.94;;;12.29;31.26
31088;BME280;17745;55.914;37.554;2023-04-19T03:05:53;100109.91;;;12.29;31.27
31088;BME280;17745;55.914;37.554;2023-04-19T03:08:30;100108.37;;;12.34;31.28
31088;BME280;17745;55.914;37.554;2023-04-19T03:11:01;100105.97;;;12.32;31.30
31088;BME280;17745;55.914;37.554;2023-04-19T03:13:37;100115.00;;;12.31;31.33
31088;BME280;17745;55.914;37.554;2023-04-19T03:16:08;100110.88;;;12.40;31.26
31088;BME280;17745;55.914;37.554;2023-04-19T03:18:36;100110.09;;;12.40;31.26
31088;BME280;17745;55.914;37.554;2023-04-19T03:21:05;100110.88;;;12.40;31.27
31088;BME280;17745;55.914;37.554;2023-04-19T03:23:36;100112.25;;;12.43;31.26
31088;BME280;17745;55.914;37.554;2023-04-19T03:26:04;100102.75;;;12.47;31.27
31088;BME280;17745;55.914;37.554;2023-04-19T03:28:38;100104.69;;;12.52;31.22
31088;BME280;17745;55.914;37.554;2023-04-19T03:31:08;100105.81;;;12.56;31.19
31088;BME280;17745;55.914;37.554;2023-04-19T03:33:36;100106.13;;;12.60;31.15
31088;BME280;17745;55.914;37.554;2023-04-19T03:36:05;100118.19;;;12.67;31.09
31088;BME280;17745;55.914;37.554;2023-04-19T03:38:37;100109.47;;;12.72;31.05
31088;BME280;17745;55.914;37.554;2023-04-19T03:41:17;100118.31;;;12.78;30.96
31088;BME280;17745;55.914;37.554;2023-04-19T03:43:47;100112.84;;;12.84;30.87
31088;BME280;17745;55.914;37.554;2023-04-19T03:46:18;100115.56;;;12.90;30.81
31088;BME280;17745;55.914;37.554;2023-04-19T03:48:46;100115.00;;;12.87;30.81
31088;BME280;17745;55.914;37.554;2023-04-19T03:51:14;100111.28;;;12.89;30.82
31088;BME280;17745;55.914;37.554;2023-04-19T03:53:43;100123.38;;;12.96;30.74
31088;BME280;17745;55.914;37.554;2023-04-19T03:56:11;100108.78;;;12.99;30.67
31088;BME280;17745;55.914;37.554;2023-04-19T03:58:39;100112.38;;;13.10;30.61
31088;BME280;17745;55.914;37.554;2023-04-19T04:01:16;100102.53;;;13.10;30.57
31088;BME280;17745;55.914;37.554;2023-04-19T04:03:45;100112.88;;;13.29;30.45
31088;BME280;17745;55.914;37.554;2023-04-19T04:06:13;100117.19;;;13.35;30.35
31088;BME280;17745;55.914;37.554;2023-04-19T04:08:41;100110.34;;;13.39;30.29
31088;BME280;17745;55.914;37.554;2023-04-19T04:11:18;100112.50;;;13.42;30.28
31088;BME280;17745;55.914;37.554;2023-04-19T04:13:46;100113.62;;;13.47;30.23
31088;BME280;17745;55.914;37.554;2023-04-19T04:16:17;100109.41;;;13.51;30.21
31088;BME280;17745;55.914;37.554;2023-04-19T04:18:46;100115.16;;;13.65;30.15
31088;BME280;17745;55.914;37.554;2023-04-19T04:21:17;100114.75;;;13.78;30.02
31088;BME280;17745;55.914;37.554;2023-04-19T04:23:47;100111.44;;;13.93;29.92
31088;BME280;17745;55.914;37.554;2023-04-19T04:26:17;100112.59;;;14.03;29.83
31088;BME280;17745;55.914;37.554;2023-04-19T04:28:47;100113.72;;;14.12;29.78
31088;BME280;17745;55.914;37.554;2023-04-19T04:31:16;100114.34;;;14.19;29.77
31088;BME280;17745;55.914;37.554;2023-04-19T04:33:45;100113.34;;;14.30;29.68
31088;BME280;17745;55.914;37.554;2023-04-19T04:36:13;100117.19;;;14.45;29.54
31088;BME280;17745;55.914;37.554;2023-04-19T04:38:41;100117.78;;;14.52;29.46
31088;BME280;17745;55.914;37.554;2023-04-19T04:41:10;100127.72;;;14.67;29.37
31088;BME280;17745;55.914;37.554;2023-04-19T04:43:39;100116.66;;;14.86;29.18
31088;BME280;17745;55.914;37.554;2023-04-19T04:46:09;100121.78;;;14.98;29.05
31088;BME280;17745;55.914;37.554;2023-04-19T04:48:39;100117.59;;;15.07;28.86
31088;BME280;17745;55.914;37.554;2023-04-19T04:51:07;100127.22;;;15.19;28.67
31088;BME280;17745;55.914;37.554;2023-04-19T04:53:38;100113.62;;;15.20;28.54
31088;BME280;17745;55.914;37.554;2023-04-19T04:56:08;100124.59;;;15.29;28.54
31088;BME280;17745;55.914;37.554;2023-04-19T04:58:40;100129.97;;;15.39;28.45
31088;BME280;17745;55.914;37.554;2023-04-19T05:01:09;100119.88;;;15.47;28.41
31088;BME280;17745;55.914;37.554;2023-04-19T05:03:39;100125.75;;;15.54;28.31
31088;BME280;17745;55.914;37.554;2023-04-19T05:06:07;100130.84;;;15.61;28.24
31088;BME280;17745;55.914;37.554;2023-04-19T05:08:36;100135.16;;;15.77;28.05
31088;BME280;17745;55.914;37.554;2023-04-19T05:11:06;100128.22;;;15.86;27.83
31088;BME280;17745;55.914;37.554;2023-04-19T05:13:36;100130.66;;;15.98;27.72
31088;BME280;17745;55.914;37.554;2023-04-19T05:16:04;100134.94;;;15.94;27.70
31088;BME280;17745;55.914;37.554;2023-04-19T05:18:33;100133.06;;;15.90;27.53
31088;BME280;17745;55.914;37.554;2023-04-19T05:21:02;100134.63;;;15.80;27.41
31088;BME280;17745;55.914;37.554;2023-04-19T05:23:32;100135.41;;;15.70;27.49
31088;BME280;17745;55.914;37.554;2023-04-19T05:26:02;100146.09;;;15.65;27.54
31088;BME280;17745;55.914;37.554;2023-04-19T05:28:32;100141.53;;;15.61;27.64
31088;BME280;17745;55.914;37.554;2023-04-19T05:31:01;100142.84;;;15.58;27.48
31088;BME280;17745;55.914;37.554;2023-04-19T05:33:29;100145.78;;;15.56;27.44
31088;BME280;17745;55.914;37.554;2023-04-19T05:35:57;100142.84;;;15.53;27.30
31088;BME280;17745;55.914;37.554;2023-04-19T05:38:27;100145.50;;;15.53;27.36
31088;BME280;17745;55.914;37.554;2023-04-19T05:40:55;100146.56;;;15.52;27.40
31088;BME280;17745;55.914;37.554;2023-04-19T05:43:25;100140.97;;;15.53;27.47
31088;BME280;17745;55.914;37.554;2023-04-19T05:45:56;100145.50;;;15.58;27.54
31088;BME280;17745;55.914;37.554;2023-04-19T05:48:24;100144.72;;;15.63;27.57
31088;BME280;17745;55.914;37.554;2023-04-19T05:50:52;100151.69;;;15.69;27.55
31088;BME280;17745;55.914;37.554;2023-04-19T05:53:24;100148.75;;;15.70;27.53
31088;BME280;17745;55.914;37.554;2023-04-19T05:55:54;100151.44;;;15.76;27.55
31088;BME280;17745;55.914;37.554;2023-04-19T05:58:23;100152.56;;;16.00;27.46
31088;BME280;17745;55.914;37.554;2023-04-19T06:00:51;100147.28;;;16.26;27.20
31088;BME280;17745;55.914;37.554;2023-04-19T06:03:19;100135.47;;;16.58;27.06
31088;BME280;17745;55.914;37.554;2023-04-19T06:05:48;100143.47;;;16.79;26.87
31088;BME280;17745;55.914;37.554;2023-04-19T06:08:17;100147.69;;;16.96;26.64
31088;BME280;17745;55.914;37.554;2023-04-19T06:10:45;100141.81;;;17.09;26.45
31088;BME280;17745;55.914;37.554;2023-04-19T06:13:16;100143.38;;;17.26;26.03
31088;BME280;17745;55.914;37.554;2023-04-19T06:15:45;100140.06;;;17.39;25.86
31088;BME280;17745;55.914;37.554;2023-04-19T06:18:12;100146.94;;;17.61;25.38
31088;BME280;17745;55.914;37.554;2023-04-19T06:20:40;100145.16;;;17.91;25.38
31088;BME280;17745;55.914;37.554;2023-04-19T06:23:08;100157.41;;;18.03;25.16
31088;BME280;17745;55.914;37.554;2023-04-19T06:25:38;100148.84;;;18.00;24.94
31088;BME280;17745;55.914;37.554;2023-04-19T06:28:08;100154.31;;;17.80;24.62
31088;BME280;17745;55.914;37.554;2023-04-19T06:30:45;100158.91;;;17.74;24.76
31088;BME280;17745;55.914;37.554;2023-04-19T06:33:13;100160.78;;;17.74;24.74
31088;BME280;17745;55.914;37.554;2023-04-19T06:35:41;100159.97;;;17.73;24.64
31088;BME280;17745;55.914;37.554;2023-04-19T06:38:12;100160.50;;;17.80;24.66
31088;BME280;17745;55.914;37.554;2023-04-19T06:40:39;100161.88;;;17.72;24.54
31088;BME280;17745;55.914;37.554;2023-04-19T06:43:08;100171.06;;;17.56;24.65
31088;BME280;17745;55.914;37.554;2023-04-19T06:45:38;100168.38;;;17.56;24.82
31088;BME280;17745;55.914;37.554;2023-04-19T06:48:08;100169.84;;;17.27;25.02
31088;BME280;17745;55.914;37.554;2023-04-19T06:50:37;100168.25;;;17.26;25.11
31088;BME280;17745;55.914;37.554;2023-04-19T06:53:08;100172.25;;;17.29;25.22
31088;BME280;17745;55.914;37.554;2023-04-19T06:55:38;100177.84;;;17.38;25.19
31088;BME280;17745;55.914;37.554;2023-04-19T06:58:06;100178.59;;;17.43;25.16
31088;BME280;17745;55.914;37.554;2023-04-19T07:00:36;100185.09;;;17.22;25.13
31088;BME280;17745;55.914;37.554;2023-04-19T07:03:04;100182.97;;;17.29;25.17
31088;BME280;17745;55.914;37.554;2023-04-19T07:05:37;100178.69;;;17.28;25.16
31088;BME280;17745;55.914;37.554;2023-04-19T07:08:05;100163.69;;;17.22;25.10
31088;BME280;17745;55.914;37.554;2023-04-19T07:10:36;100177.59;;;17.29;25.24
31088;BME280;17745;55.914;37.554;2023-04-19T07:13:04;100185.59;;;17.39;25.34
31088;BME280;17745;55.914;37.554;2023-04-19T07:15:38;100169.53;;;17.39;25.29
31088;BME280;17745;55.914;37.554;2023-04-19T07:18:11;100175.34;;;17.57;25.22
31088;BME280;17745;55.914;37.554;2023-04-19T07:20:49;100170.03;;;17.47;24.96
31088;BME280;17745;55.914;37.554;2023-04-19T07:23:28;100173.81;;;17.46;24.93
31088;BME280;17745;55.914;37.554;2023-04-19T07:25:57;100179.16;;;17.40;24.97
31088;BME280;17745;55.914;37.554;2023-04-19T07:28:27;100171.66;;;17.48;25.07
31088;BME280;17745;55.914;37.554;2023-04-19T07:30:59;100173.22;;;17.54;25.01
31088;BME280;17745;55.914;37.554;2023-04-19T07:33:28;100171.03;;;17.61;24.91
31088;BME280;17745;55.914;37.554;2023-04-19T07:35:59;100178.72;;;17.73;24.82
31088;BME280;17745;55.914;37.554;2023-04-19T07:38:28;100171.03;;;17.66;24.84
31088;BME280;17745;55.914;37.554;2023-04-19T07:40:57;100174.75;;;17.70;24.78
31088;BME280;17745;55.914;37.554;2023-04-19T07:43:28;100171.50;;;17.74;24.71
31088;BME280;17745;55.914;37.554;2023-04-19T07:45:57;100171.78;;;17.77;24.75
31088;BME280;17745;55.914;37.554;2023-04-19T07:48:25;100173.03;;;17.85;24.59
31088;BME280;17745;55.914;37.554;2023-04-19T07:50:53;100173.81;;;17.96;24.48
31088;BME280;17745;55.914;37.554;2023-04-19T07:53:28;100170.56;;;18.04;24.31
31088;BME280;17745;55.914;37.554;2023-04-19T07:55:55;100156.66;;;17.92;24.11
31088;BME280;17745;55.914;37.554;2023-04-19T07:58:24;100178.41;;;17.85;24.08
31088;BME280;17745;55.914;37.554;2023-04-19T08:00:52;100173.59;;;17.87;24.11
31088;BME280;17745;55.914;37.554;2023-04-19T08:03:23;100175.09;;;17.98;24.11
31088;BME280;17745;55.914;37.554;2023-04-19T08:05:52;100165.34;;;18.18;23.97
31088;BME280;17745;55.914;37.554;2023-04-19T08:08:28;100162.00;;;18.37;23.94
31088;BME280;17745;55.914;37.554;2023-04-19T08:10:57;100167.88;;;18.68;23.75
31088;BME280;17745;55.914;37.554;2023-04-19T08:13:28;100162.87;;;18.86;23.56
31088;BME280;17745;55.914;37.554;2023-04-19T08:15:56;100162.75;;;18.96;23.36
31088;BME280;17745;55.914;37.554;2023-04-19T08:18:25;100159.56;;;18.94;23.01
31088;BME280;17745;55.914;37.554;2023-04-19T08:21:02;100162.13;;;18.80;23.00
31088;BME280;17745;55.914;37.554;2023-04-19T08:23:43;100148.97;;;18.84;23.05
31088;BME280;17745;55.914;37.554;2023-04-19T08:26:16;100168.59;;;18.79;23.05
31088;BME280;17745;55.914;37.554;2023-04-19T08:28:48;100154.66;;;18.77;22.86
31088;BME280;17745;55.914;37.554;2023-04-19T08:31:20;100163.22;;;18.50;22.86
31088;BME280;17745;55.914;37.554;2023-04-19T08:33:49;100164.44;;;18.63;22.82
31088;BME280;17745;55.914;37.554;2023-04-19T08:36:19;100157.72;;;18.65;22.62
31088;BME280;17745;55.914;37.554;2023-04-19T08:38:51;100158.94;;;18.78;22.63
31088;BME280;17745;55.914;37.554;2023-04-19T08:41:21;100155.84;;;18.90;22.56
31088;BME280;17745;55.914;37.554;2023-04-19T08:43:52;100166.75;;;18.75;22.28
31088;BME280;17745;55.914;37.554;2023-04-19T08:46:24;100158.69;;;18.75;22.31
31088;BME280;17745;55.914;37.554;2023-04-19T08:48:57;100157.59;;;18.76;22.02
31088;BME280;17745;55.914;37.554;2023-04-19T08:51:28;100161.94;;;18.71;21.94
31088;BME280;17745;55.914;37.554;2023-04-19T08:53:58;100161.88;;;18.77;21.93
31088;BME280;17745;55.914;37.554;2023-04-19T08:56:28;100153.31;;;18.80;21.87
31088;BME280;17745;55.914;37.554;2023-04-19T08:58:57;100138.81;;;18.81;21.77
31088;BME280;17745;55.914;37.554;2023-04-19T09:01:29;100157.19;;;18.93;21.84
31088;BME280;17745;55.914;37.554;2023-04-19T09:03:57;100149.56;;;19.05;21.82
31088;BME280;17745;55.914;37.554;2023-04-19T09:06:27;100151.47;;;19.24;21.79
31088;BME280;17745;55.914;37.554;2023-04-19T09:09:13;100147.81;;;19.39;21.75
31088;BME280;17745;55.914;37.554;2023-04-19T09:11:41;100136.44;;;19.47;21.58
31088;BME280;17745;55.914;37.554;2023-04-19T09:14:11;100139.50;;;19.60;21.61
31088;BME280;17745;55.914;37.554;2023-04-19T09:16:40;100146.31;;;19.71;21.57
31088;BME280;17745;55.914;37.554;2023-04-19T09:19:11;100140.50;;;19.83;21.32
31088;BME280;17745;55.914;37.554;2023-04-19T09:21:39;100139.88;;;19.91;21.07
31088;BME280;17745;55.914;37.554;2023-04-19T09:24:09;100133.91;;;19.94;21.00
31088;BME280;17745;55.914;37.554;2023-04-19T09:26:54;100135.44;;;20.00;20.87
31088;BME280;17745;55.914;37.554;2023-04-19T09:29:37;100134.97;;;20.12;20.80
31088;BME280;17745;55.914;37.554;2023-04-19T09:32:06;100130.00;;;20.20;20.85
31088;BME280;17745;55.914;37.554;2023-04-19T09:34:34;100121.38;;;20.23;20.83
31088;BME280;17745;55.914;37.554;2023-04-19T09:37:11;100112.97;;;20.10;20.60
31088;BME280;17745;55.914;37.554;2023-04-19T09:39:43;100112.34;;;19.42;20.58
31088;BME280;17745;55.914;37.554;2023-04-19T09:42:16;100111.87;;;19.16;20.74
31088;BME280;17745;55.914;37.554;2023-04-19T09:44:56;100115.56;;;18.95;20.86
31088;BME280;17745;55.914;37.554;2023-04-19T09:47:27;100107.12;;;18.83;20.80
31088;BME280;17745;55.914;37.554;2023-04-19T09:50:08;100116.94;;;18.93;20.73
31088;BME280;17745;55.914;37.554;2023-04-19T09:52:36;100121.31;;;19.32;20.78
31088;BME280;17745;55.914;37.554;2023-04-19T09:55:11;100115.97;;;19.08;20.73
31088;BME280;17745;55.914;37.554;2023-04-19T09:57:41;100117.66;;;19.23;20.55
31088;BME280;17745;55.914;37.554;2023-04-19T10:00:12;100120.31;;;19.47;20.61
31088;BME280;17745;55.914;37.554;2023-04-19T10:02:45;100112.69;;;19.54;20.74
31088;BME280;17745;55.914;37.554;2023-04-19T10:05:36;100114.78;;;19.57;20.79
31088;BME280;17745;55.914;37.554;2023-04-19T10:08:13;100103.84;;;19.54;20.74
31088;BME280;17745;55.914;37.554;2023-04-19T10:10:45;100105.09;;;19.62;20.75
31088;BME280;17745;55.914;37.554;2023-04-19T10:13:21;100107.31;;;19.54;20.76
31088;BME280;17745;55.914;37.554;2023-04-19T10:15:50;100100.06;;;19.36;20.73
31088;BME280;17745;55.914;37.554;2023-04-19T10:18:20;100104.56;;;19.40;20.77
31088;BME280;17745;55.914;37.554;2023-04-19T10:20:56;100106.75;;;19.38;20.72
31088;BME280;17745;55.914;37.554;2023-04-19T10:23:26;100099.38;;;19.25;20.80
31088;BME280;17745;55.914;37.554;2023-04-19T10:25:58;100107.00;;;19.37;20.79
31088;BME280;17745;55.914;37.554;2023-04-19T10:28:27;100098.59;;;19.43;20.68
31088;BME280;17745;55.914;37.554;2023-04-19T10:30:58;100096.28;;;19.37;20.60
31088;BME280;17745;55.914;37.554;2023-04-19T10:33:30;100095.94;;;19.63;20.62
31088;BME280;17745;55.914;37.554;2023-04-19T10:35:59;100097.59;;;19.78;20.58
31088;BME280;17745;55.914;37.554;2023-04-19T10:38:35;100090.12;;;19.75;20.53
31088;BME280;17745;55.914;37.554;2023-04-19T10:41:08;100079.28;;;19.80;20.41
31088;BME280;17745;55.914;37.554;2023-04-19T10:43:43;100086.72;;;19.31;20.63
31088;BME280;17745;55.914;37.554;2023-04-19T10:46:35;100097.34;;;19.17;20.95
31088;BME280;17745;55.914;37.554;2023-04-19T10:49:08;100088.88;;;19.67;20.59
31088;BME280;17745;55.914;37.554;2023-04-19T10:51:39;100098.31;;;19.83;20.53
31088;BME280;17745;55.914;37.554;2023-04-19T10:54:27;100097.94;;;19.90;20.36
31088;BME280;17745;55.914;37.554;2023-04-19T10:57:00;100088.72;;;19.96;20.29
31088;BME280;17745;55.914;37.554;2023-04-19T10:59:30;100097.72;;;20.06;20.33
31088;BME280;17745;55.914;37.554;2023-04-19T11:02:00;100087.13;;;19.95;20.30
31088;BME280;17745;55.914;37.554;2023-04-19T11:05:03;100079.50;;;19.64;20.33
31088;BME280;17745;55.914;37.554;2023-04-19T11:07:39;100082.25;;;19.78;20.27
31088;BME280;17745;55.914;37.554;2023-04-19T11:10:09;100078.47;;;19.98;20.20
31088;BME280;17745;55.914;37.554;2023-04-19T11:12:44;100076.75;;;20.22;20.10
31088;BME280;17745;55.914;37.554;2023-04-19T11:15:12;100068.28;;;21.26;19.46
31088;BME280;17745;55.914;37.554;2023-04-19T11:17:43;100068.75;;;22.42;18.28
31088;BME280;17745;55.914;37.554;2023-04-19T11:20:14;100060.06;;;23.12;17.36
31088;BME280;17745;55.914;37.554;2023-04-19T11:22:44;100064.75;;;23.30;17.07
31088;BME280;17745;55.914;37.554;2023-04-19T11:25:17;100065.16;;;23.93;16.91
31088;BME280;17745;55.914;37.554;2023-04-19T11:27:51;100070.47;;;24.76;16.47
31088;BME280;17745;55.914;37.554;2023-04-19T11:30:27;100058.88;;;25.61;15.90
31088;BME280;17745;55.914;37.554;2023-04-19T11:32:59;100046.12;;;26.07;15.56
31088;BME280;17745;55.914;37.554;2023-04-19T11:35:29;100045.34;;;26.81;15.15
31088;BME280;17745;55.914;37.554;2023-04-19T11:37:58;100043.28;;;27.44;14.92
31088;BME280;17745;55.914;37.554;2023-04-19T11:40:27;100040.87;;;27.55;13.80
31088;BME280;17745;55.914;37.554;2023-04-19T11:43:00;100046.75;;;26.25;14.13
31088;BME280;17745;55.914;37.554;2023-04-19T11:45:30;100038.59;;;26.25;14.54
31088;BME280;17745;55.914;37.554;2023-04-19T11:48:03;100038.38;;;26.68;14.27
31088;BME280;17745;55.914;37.554;2023-04-19T11:50:36;100035.28;;;26.69;14.01
31088;BME280;17745;55.914;37.554;2023-04-19T11:53:15;100041.66;;;26.36;13.99
31088;BME280;17745;55.914;37.554;2023-04-19T11:55:54;100037.69;;;26.59;14.03
31088;BME280;17745;55.914;37.554;2023-04-19T11:58:31;100028.50;;;27.29;13.83
31088;BME280;17745;55.914;37.554;2023-04-19T12:01:03;100028.75;;;28.13;13.20
31088;BME280;17745;55.914;37.554;2023-04-19T12:03:40;100024.44;;;28.44;12.88
31088;BME280;17745;55.914;37.554;2023-04-19T12:06:17;100019.41;;;28.46;12.90
31088;BME280;17745;55.914;37.554;2023-04-19T12:08:48;100025.19;;;28.96;12.60
31088;BME280;17745;55.914;37.554;2023-04-19T12:11:20;100014.94;;;28.06;12.24
31088;BME280;17745;55.914;37.554;2023-04-19T12:14:08;100024.53;;;26.98;12.79
31088;BME280;17745;55.914;37.554;2023-04-19T12:16:37;100013.72;;;27.43;13.00
31088;BME280;17745;55.914;37.554;2023-04-19T12:19:10;100013.37;;;28.89;12.47
31088;BME280;17745;55.914;37.554;2023-04-19T12:21:45;100020.69;;;29.87;11.74
31088;BME280;17745;55.914;37.554;2023-04-19T12:24:17;100018.97;;;29.35;11.54
31088;BME280;17745;55.914;37.554;2023-04-19T12:26:53;100009.59;;;28.25;12.07
31088;BME280;17745;55.914;37.554;2023-04-19T12:29:23;100004.06;;;27.45;12.47
31088;BME280;17745;55.914;37.554;2023-04-19T12:31:52;100012.56;;;27.44;12.43
31088;BME280;17745;55.914;37.554;2023-04-19T12:34:21;100010.94;;;28.16;12.33
31088;BME280;17745;55.914;37.554;2023-04-19T12:36:49;100010.00;;;28.95;12.01
31088;BME280;17745;55.914;37.554;2023-04-19T12:39:19;100013.59;;;29.39;11.72
31088;BME280;17745;55.914;37.554;2023-04-19T12:41:47;100000.41;;;29.64;11.44
31088;BME280;17745;55.914;37.554;2023-04-19T12:44:18;100007.94;;;28.89;11.57
31088;BME280;17745;55.914;37.554;2023-04-19T12:46:47;100000.66;;;28.09;11.90
31088;BME280;17745;55.914;37.554;2023-04-19T12:49:17;99997.41;;;28.19;12.08
31088;BME280;17745;55.914;37.554;2023-04-19T12:51:46;99998.38;;;28.63;11.76
31088;BME280;17745;55.914;37.554;2023-04-19T12:54:17;99992.78;;;28.56;11.83
31088;BME280;17745;55.914;37.554;2023-04-19T12:56:45;99988.69;;;29.01;11.89
31088;BME280;17745;55.914;37.554;2023-04-19T12:59:13;99994.91;;;29.84;11.59
31088;BME280;17745;55.914;37.554;2023-04-19T13:01:41;99987.00;;;30.52;11.25
31088;BME280;17745;55.914;37.554;2023-04-19T13:04:11;99980.81;;;31.20;10.97
31088;BME280;17745;55.914;37.554;2023-04-19T13:06:41;99986.94;;;31.10;10.66
31088;BME280;17745;55.914;37.554;2023-04-19T13:12:24;99974.88;;;31.98;10.58